sensor_id;sensor_type;location;lat;lon;timestamp;P1;durP1;ratioP1;P2;durP2;ratioP2
27303;SDS011;14791;52.392;13.092;2023-05-16T00:00:45;4.27;;;4.13;;
27303;SDS011;14791;52.392;13.092;2023-05-16T00:03:15;4.12;;;4.03;;
27303;SDS011;14791;52.392;13.092;2023-05-16T00:05:44;4.97;;;4.73;;
27303;SDS011;14791;52.392;13.092;2023-05-16T00:08:13;4.97;;;4.75;;
27303;SDS011;14791;52.392;13.092;2023-05-16T00:10:41;4.60;;;4.40;;
27303;SDS011;14791;52.392;13.092;2023-05-16T00:13:10;4.30;;;4.20;;
27303;SDS011;14791;52.392;13.092;2023-05-16T00:15:39;5.05;;;4.62;;
27303;SDS011;14791;52.392;13.092;2023-05-16T00:18:10;4.50;;;4.30;;
27303;SDS011;14791;52.392;13.092;2023-05-16T00:20:40;4.37;;;4.22;;
27303;SDS011;14791;52.392;13.092;2023-05-16T00:23:09;5.00;;;4.70;;
27303;SDS011;14791;52.392;13.092;2023-05-16T00:25:38;4.80;;;4.70;;
27303;SDS011;14791;52.392;13.092;2023-05-16T00:28:07;5.17;;;4.97;;
27303;SDS011;14791;52.392;13.092;2023-05-16T00:30:36;4.80;;;4.60;;
27303;SDS011;14791;52.392;13.092;2023-05-16T00:33:06;5.33;;;4.92;;
27303;SDS011;14791;52.392;13.092;2023-05-16T00:35:35;4.58;;;4.37;;
27303;SDS011;14791;52.392;13.092;2023-05-16T00:38:04;5.03;;;4.83;;
27303;SDS011;14791;52.392;13.092;2023-05-16T00:40:33;5.55;;;5.05;;
27303;SDS011;14791;52.392;13.092;2023-05-16T00:43:02;4.78;;;4.62;;
27303;SDS011;14791;52.392;13.092;2023-05-16T00:45:31;4.80;;;4.60;;
27303;SDS011;14791;52.392;13.092;2023-05-16T00:48:00;4.93;;;4.73;;
27303;SDS011;14791;52.392;13.092;2023-05-16T00:50:29;5.15;;;4.95;;
27303;SDS011;14791;52.392;13.092;2023-05-16T00:53:00;5.07;;;4.87;;
27303;SDS011;14791;52.392;13.092;2023-05-16T00:55:29;5.17;;;4.97;;
27303;SDS011;14791;52.392;13.092;2023-05-16T00:58:00;5.47;;;5.17;;
27303;SDS011;14791;52.392;13.092;2023-05-16T01:00:29;5.30;;;5.10;;
27303;SDS011;14791;52.392;13.092;2023-05-16T01:02:58;5.20;;;4.90;;
27303;SDS011;14791;52.392;13.092;2023-05-16T01:05:28;5.40;;;5.10;;
27303;SDS011;14791;52.392;13.092;2023-05-16T01:07:57;5.30;;;5.07;;
27303;SDS011;14791;52.392;13.092;2023-05-16T01:10:26;5.00;;;4.80;;
27303;SDS011;14791;52.392;13.092;2023-05-16T01:15:46;5.17;;;4.97;;
27303;SDS011;14791;52.392;13.092;2023-05-16T01:18:23;6.12;;;5.62;;
27303;SDS011;14791;52.392;13.092;2023-05-16T01:20:58;5.93;;;5.53;;
27303;SDS011;14791;52.392;13.092;2023-05-16T01:26:21;5.70;;;5.37;;
27303;SDS011;14791;52.392;13.092;2023-05-16T01:28:52;5.47;;;5.23;;
27303;SDS011;14791;52.392;13.092;2023-05-16T01:31:22;6.07;;;5.57;;
27303;SDS011;14791;52.392;13.092;2023-05-16T01:33:51;5.37;;;5.13;;
27303;SDS011;14791;52.392;13.092;2023-05-16T01:36:32;5.50;;;5.30;;
27303;SDS011;14791;52.392;13.092;2023-05-16T01:39:14;6.08;;;5.80;;
27303;SDS011;14791;52.392;13.092;2023-05-16T01:42:04;5.67;;;5.47;;
27303;SDS011;14791;52.392;13.092;2023-05-16T01:44:45;5.37;;;5.17;;
27303;SDS011;14791;52.392;13.092;2023-05-16T01:47:20;4.97;;;4.80;;
27303;SDS011;14791;52.392;13.092;2023-05-16T01:49:56;5.43;;;5.23;;
27303;SDS011;14791;52.392;13.092;2023-05-16T01:52:45;5.30;;;5.00;;
27303;SDS011;14791;52.392;13.092;2023-05-16T01:55:29;5.60;;;5.40;;
27303;SDS011;14791;52.392;13.092;2023-05-16T01:58:03;5.83;;;5.50;;
27303;SDS011;14791;52.392;13.092;2023-05-16T02:00:34;5.60;;;5.30;;
27303;SDS011;14791;52.392;13.092;2023-05-16T02:03:03;4.80;;;4.60;;
27303;SDS011;14791;52.392;13.092;2023-05-16T02:05:32;5.78;;;5.47;;
27303;SDS011;14791;52.392;13.092;2023-05-16T02:08:02;4.97;;;4.83;;
27303;SDS011;14791;52.392;13.092;2023-05-16T02:10:34;4.90;;;4.70;;
27303;SDS011;14791;52.392;13.092;2023-05-16T02:13:03;5.27;;;4.97;;
27303;SDS011;14791;52.392;13.092;2023-05-16T02:15:32;4.97;;;4.80;;
27303;SDS011;14791;52.392;13.092;2023-05-16T02:18:01;5.13;;;4.93;;
27303;SDS011;14791;52.392;13.092;2023-05-16T02:20:30;5.13;;;4.83;;
27303;SDS011;14791;52.392;13.092;2023-05-16T02:23:00;5.08;;;4.78;;
27303;SDS011;14791;52.392;13.092;2023-05-16T02:25:31;5.33;;;5.03;;
27303;SDS011;14791;52.392;13.092;2023-05-16T02:28:01;4.83;;;4.62;;
27303;SDS011;14791;52.392;13.092;2023-05-16T02:30:30;5.03;;;4.85;;
27303;SDS011;14791;52.392;13.092;2023-05-16T02:32:59;4.92;;;4.72;;
27303;SDS011;14791;52.392;13.092;2023-05-16T02:35:29;5.25;;;5.05;;
27303;SDS011;14791;52.392;13.092;2023-05-16T02:37:59;4.62;;;4.42;;
27303;SDS011;14791;52.392;13.092;2023-05-16T02:40:28;5.30;;;5.00;;
27303;SDS011;14791;52.392;13.092;2023-05-16T02:42:57;5.23;;;4.93;;
27303;SDS011;14791;52.392;13.092;2023-05-16T02:45:26;4.67;;;4.57;;
27303;SDS011;14791;52.392;13.092;2023-05-16T02:47:55;5.43;;;5.23;;
27303;SDS011;14791;52.392;13.092;2023-05-16T02:50:24;5.03;;;4.83;;
27303;SDS011;14791;52.392;13.092;2023-05-16T02:52:53;5.07;;;4.77;;
27303;SDS011;14791;52.392;13.092;2023-05-16T02:55:22;5.40;;;5.07;;
27303;SDS011;14791;52.392;13.092;2023-05-16T02:57:51;5.10;;;4.90;;
27303;SDS011;14791;52.392;13.092;2023-05-16T03:00:21;5.10;;;4.80;;
27303;SDS011;14791;52.392;13.092;2023-05-16T03:02:50;5.60;;;5.37;;
27303;SDS011;14791;52.392;13.092;2023-05-16T03:05:19;5.17;;;4.97;;
27303;SDS011;14791;52.392;13.092;2023-05-16T03:07:49;5.33;;;5.13;;
27303;SDS011;14791;52.392;13.092;2023-05-16T03:10:18;5.83;;;5.33;;
27303;SDS011;14791;52.392;13.092;2023-05-16T03:12:47;5.87;;;5.50;;
27303;SDS011;14791;52.392;13.092;2023-05-16T03:15:15;6.00;;;5.60;;
27303;SDS011;14791;52.392;13.092;2023-05-16T03:17:44;5.70;;;5.40;;
27303;SDS011;14791;52.392;13.092;2023-05-16T03:20:13;5.93;;;5.60;;
27303;SDS011;14791;52.392;13.092;2023-05-16T03:22:42;6.57;;;6.13;;
27303;SDS011;14791;52.392;13.092;2023-05-16T03:25:11;6.30;;;5.90;;
27303;SDS011;14791;52.392;13.092;2023-05-16T03:27:41;6.57;;;6.07;;
27303;SDS011;14791;52.392;13.092;2023-05-16T03:30:10;6.47;;;6.17;;
27303;SDS011;14791;52.392;13.092;2023-05-16T03:32:40;6.43;;;6.13;;
27303;SDS011;14791;52.392;13.092;2023-05-16T03:35:09;6.17;;;5.77;;
27303;SDS011;14791;52.392;13.092;2023-05-16T03:37:38;6.10;;;5.80;;
27303;SDS011;14791;52.392;13.092;2023-05-16T03:40:08;6.53;;;6.33;;
27303;SDS011;14791;52.392;13.092;2023-05-16T03:42:37;6.37;;;6.17;;
27303;SDS011;14791;52.392;13.092;2023-05-16T03:45:06;6.87;;;6.47;;
27303;SDS011;14791;52.392;13.092;2023-05-16T03:47:35;7.20;;;6.80;;
27303;SDS011;14791;52.392;13.092;2023-05-16T03:50:05;6.63;;;6.33;;
27303;SDS011;14791;52.392;13.092;2023-05-16T03:52:35;6.40;;;6.10;;
27303;SDS011;14791;52.392;13.092;2023-05-16T03:55:05;6.47;;;6.17;;
27303;SDS011;14791;52.392;13.092;2023-05-16T03:57:36;6.30;;;6.10;;
27303;SDS011;14791;52.392;13.092;2023-05-16T04:00:05;7.13;;;6.73;;
27303;SDS011;14791;52.392;13.092;2023-05-16T04:02:39;7.03;;;6.53;;
27303;SDS011;14791;52.392;13.092;2023-05-16T04:05:09;6.47;;;6.07;;
27303;SDS011;14791;52.392;13.092;2023-05-16T04:07:39;6.87;;;6.50;;
27303;SDS011;14791;52.392;13.092;2023-05-16T04:10:08;6.33;;;5.93;;
27303;SDS011;14791;52.392;13.092;2023-05-16T04:12:38;7.00;;;6.33;;
27303;SDS011;14791;52.392;13.092;2023-05-16T04:15:07;6.30;;;6.00;;
27303;SDS011;14791;52.392;13.092;2023-05-16T04:17:37;6.00;;;5.73;;
27303;SDS011;14791;52.392;13.092;2023-05-16T04:20:08;5.83;;;5.53;;
27303;SDS011;14791;52.392;13.092;2023-05-16T04:22:37;6.20;;;5.80;;
27303;SDS011;14791;52.392;13.092;2023-05-16T04:25:06;6.20;;;5.90;;
27303;SDS011;14791;52.392;13.092;2023-05-16T04:27:35;6.07;;;5.70;;
27303;SDS011;14791;52.392;13.092;2023-05-16T04:30:05;5.67;;;5.43;;
27303;SDS011;14791;52.392;13.092;2023-05-16T04:32:34;5.83;;;5.43;;
27303;SDS011;14791;52.392;13.092;2023-05-16T04:35:03;5.70;;;5.40;;
27303;SDS011;14791;52.392;13.092;2023-05-16T04:37:34;5.10;;;4.90;;
27303;SDS011;14791;52.392;13.092;2023-05-16T04:40:04;5.63;;;5.23;;
27303;SDS011;14791;52.392;13.092;2023-05-16T04:42:36;5.60;;;5.30;;
27303;SDS011;14791;52.392;13.092;2023-05-16T04:45:06;5.27;;;5.07;;
27303;SDS011;14791;52.392;13.092;2023-05-16T04:47:37;5.97;;;5.43;;
27303;SDS011;14791;52.392;13.092;2023-05-16T04:50:06;5.53;;;5.17;;
27303;SDS011;14791;52.392;13.092;2023-05-16T04:52:35;4.23;;;4.13;;
27303;SDS011;14791;52.392;13.092;2023-05-16T04:55:05;4.83;;;4.63;;
27303;SDS011;14791;52.392;13.092;2023-05-16T04:57:34;4.87;;;4.60;;
27303;SDS011;14791;52.392;13.092;2023-05-16T05:00:03;5.33;;;5.03;;
27303;SDS011;14791;52.392;13.092;2023-05-16T05:02:38;4.97;;;4.67;;
27303;SDS011;14791;52.392;13.092;2023-05-16T05:05:07;4.67;;;4.47;;
27303;SDS011;14791;52.392;13.092;2023-05-16T05:07:36;5.37;;;5.07;;
27303;SDS011;14791;52.392;13.092;2023-05-16T05:10:06;5.20;;;4.90;;
27303;SDS011;14791;52.392;13.092;2023-05-16T05:12:35;5.57;;;5.27;;
27303;SDS011;14791;52.392;13.092;2023-05-16T05:15:05;5.43;;;5.23;;
27303;SDS011;14791;52.392;13.092;2023-05-16T05:17:34;5.67;;;5.37;;
27303;SDS011;14791;52.392;13.092;2023-05-16T05:20:04;5.60;;;5.30;;
27303;SDS011;14791;52.392;13.092;2023-05-16T05:22:34;5.10;;;4.83;;
27303;SDS011;14791;52.392;13.092;2023-05-16T05:25:03;5.80;;;5.50;;
27303;SDS011;14791;52.392;13.092;2023-05-16T05:27:33;5.53;;;5.23;;
27303;SDS011;14791;52.392;13.092;2023-05-16T05:30:02;6.00;;;5.70;;
27303;SDS011;14791;52.392;13.092;2023-05-16T05:32:31;5.23;;;5.03;;
27303;SDS011;14791;52.392;13.092;2023-05-16T05:35:00;5.97;;;5.73;;
27303;SDS011;14791;52.392;13.092;2023-05-16T05:37:30;7.33;;;6.40;;
27303;SDS011;14791;52.392;13.092;2023-05-16T05:39:58;6.10;;;5.70;;
27303;SDS011;14791;52.392;13.092;2023-05-16T05:42:27;5.67;;;5.37;;
27303;SDS011;14791;52.392;13.092;2023-05-16T05:44:56;6.30;;;5.90;;
27303;SDS011;14791;52.392;13.092;2023-05-16T05:47:25;5.80;;;5.50;;
27303;SDS011;14791;52.392;13.092;2023-05-16T05:49:54;5.70;;;5.40;;
27303;SDS011;14791;52.392;13.092;2023-05-16T05:52:25;4.93;;;4.63;;
27303;SDS011;14791;52.392;13.092;2023-05-16T05:54:54;5.27;;;4.97;;
27303;SDS011;14791;52.392;13.092;2023-05-16T05:57:25;5.30;;;5.00;;
27303;SDS011;14791;52.392;13.092;2023-05-16T05:59:54;5.63;;;5.33;;
27303;SDS011;14791;52.392;13.092;2023-05-16T06:02:22;5.73;;;5.43;;
27303;SDS011;14791;52.392;13.092;2023-05-16T06:04:51;5.30;;;5.00;;
27303;SDS011;14791;52.392;13.092;2023-05-16T06:07:20;5.30;;;5.03;;
27303;SDS011;14791;52.392;13.092;2023-05-16T06:09:49;5.30;;;5.10;;
27303;SDS011;14791;52.392;13.092;2023-05-16T06:12:18;4.90;;;4.70;;
27303;SDS011;14791;52.392;13.092;2023-05-16T06:14:47;5.40;;;5.20;;
27303;SDS011;14791;52.392;13.092;2023-05-16T06:17:16;4.95;;;4.65;;
27303;SDS011;14791;52.392;13.092;2023-05-16T06:19:45;5.40;;;5.10;;
27303;SDS011;14791;52.392;13.092;2023-05-16T06:22:14;4.83;;;4.63;;
27303;SDS011;14791;52.392;13.092;2023-05-16T06:24:43;4.13;;;4.03;;
27303;SDS011;14791;52.392;13.092;2023-05-16T06:27:11;4.53;;;4.43;;
27303;SDS011;14791;52.392;13.092;2023-05-16T06:29:40;4.37;;;4.27;;
27303;SDS011;14791;52.392;13.092;2023-05-16T06:32:09;4.47;;;4.27;;
27303;SDS011;14791;52.392;13.092;2023-05-16T06:34:38;4.30;;;4.20;;
27303;SDS011;14791;52.392;13.092;2023-05-16T06:37:07;4.37;;;4.27;;
27303;SDS011;14791;52.392;13.092;2023-05-16T06:39:37;4.47;;;4.17;;
27303;SDS011;14791;52.392;13.092;2023-05-16T06:42:05;4.20;;;4.10;;
27303;SDS011;14791;52.392;13.092;2023-05-16T06:44:36;4.43;;;4.13;;
27303;SDS011;14791;52.392;13.092;2023-05-16T06:47:05;4.27;;;4.17;;
27303;SDS011;14791;52.392;13.092;2023-05-16T06:49:34;4.47;;;4.15;;
27303;SDS011;14791;52.392;13.092;2023-05-16T06:52:03;3.73;;;3.63;;
27303;SDS011;14791;52.392;13.092;2023-05-16T06:54:32;3.90;;;3.80;;
27303;SDS011;14791;52.392;13.092;2023-05-16T06:57:01;4.13;;;3.83;;
27303;SDS011;14791;52.392;13.092;2023-05-16T06:59:31;4.20;;;3.73;;
27303;SDS011;14791;52.392;13.092;2023-05-16T07:02:01;3.87;;;3.67;;
27303;SDS011;14791;52.392;13.092;2023-05-16T07:04:30;4.03;;;3.83;;
27303;SDS011;14791;52.392;13.092;2023-05-16T07:06:58;3.50;;;3.40;;
27303;SDS011;14791;52.392;13.092;2023-05-16T07:09:27;3.62;;;3.52;;
27303;SDS011;14791;52.392;13.092;2023-05-16T07:11:57;4.10;;;3.90;;
27303;SDS011;14791;52.392;13.092;2023-05-16T07:14:26;4.00;;;3.80;;
27303;SDS011;14791;52.392;13.092;2023-05-16T07:16:55;3.87;;;3.75;;
27303;SDS011;14791;52.392;13.092;2023-05-16T07:19:24;3.72;;;3.55;;
27303;SDS011;14791;52.392;13.092;2023-05-16T07:21:52;3.52;;;3.33;;
27303;SDS011;14791;52.392;13.092;2023-05-16T07:24:22;3.42;;;3.33;;
27303;SDS011;14791;52.392;13.092;2023-05-16T07:26:51;3.90;;;3.80;;
27303;SDS011;14791;52.392;13.092;2023-05-16T07:29:20;3.67;;;3.57;;
27303;SDS011;14791;52.392;13.092;2023-05-16T07:31:48;3.80;;;3.60;;
27303;SDS011;14791;52.392;13.092;2023-05-16T07:34:18;2.95;;;2.87;;
27303;SDS011;14791;52.392;13.092;2023-05-16T07:36:47;3.20;;;3.10;;
27303;SDS011;14791;52.392;13.092;2023-05-16T07:39:16;3.27;;;3.02;;
27303;SDS011;14791;52.392;13.092;2023-05-16T07:41:45;2.80;;;2.72;;
27303;SDS011;14791;52.392;13.092;2023-05-16T07:44:14;2.70;;;2.60;;
27303;SDS011;14791;52.392;13.092;2023-05-16T07:46:42;2.40;;;2.30;;
27303;SDS011;14791;52.392;13.092;2023-05-16T07:49:11;2.58;;;2.47;;
27303;SDS011;14791;52.392;13.092;2023-05-16T07:51:40;1.95;;;1.95;;
27303;SDS011;14791;52.392;13.092;2023-05-16T07:54:09;2.58;;;2.47;;
27303;SDS011;14791;52.392;13.092;2023-05-16T07:56:39;2.10;;;2.10;;
27303;SDS011;14791;52.392;13.092;2023-05-16T07:59:08;2.00;;;2.00;;
27303;SDS011;14791;52.392;13.092;2023-05-16T08:01:37;1.95;;;1.80;;
27303;SDS011;14791;52.392;13.092;2023-05-16T08:04:07;1.95;;;1.90;;
27303;SDS011;14791;52.392;13.092;2023-05-16T08:06:36;1.97;;;1.87;;
27303;SDS011;14791;52.392;13.092;2023-05-16T08:09:05;2.27;;;2.17;;
27303;SDS011;14791;52.392;13.092;2023-05-16T08:11:35;2.42;;;2.30;;
27303;SDS011;14791;52.392;13.092;2023-05-16T08:14:05;3.83;;;2.47;;
27303;SDS011;14791;52.392;13.092;2023-05-16T08:16:35;3.00;;;2.80;;
27303;SDS011;14791;52.392;13.092;2023-05-16T08:19:03;3.15;;;2.02;;
27303;SDS011;14791;52.392;13.092;2023-05-16T08:21:33;2.05;;;1.95;;
27303;SDS011;14791;52.392;13.092;2023-05-16T08:24:02;2.08;;;2.02;;
27303;SDS011;14791;52.392;13.092;2023-05-16T08:26:31;1.67;;;1.57;;
27303;SDS011;14791;52.392;13.092;2023-05-16T08:29:01;1.35;;;1.30;;
27303;SDS011;14791;52.392;13.092;2023-05-16T08:31:30;1.62;;;1.52;;
27303;SDS011;14791;52.392;13.092;2023-05-16T08:33:59;1.70;;;1.67;;
27303;SDS011;14791;52.392;13.092;2023-05-16T08:36:28;1.45;;;1.45;;
27303;SDS011;14791;52.392;13.092;2023-05-16T08:38:58;1.80;;;1.70;;
27303;SDS011;14791;52.392;13.092;2023-05-16T08:41:27;1.35;;;1.35;;
27303;SDS011;14791;52.392;13.092;2023-05-16T08:43:57;1.45;;;1.45;;
27303;SDS011;14791;52.392;13.092;2023-05-16T08:46:27;1.40;;;1.40;;
27303;SDS011;14791;52.392;13.092;2023-05-16T08:48:58;1.65;;;1.55;;
27303;SDS011;14791;52.392;13.092;2023-05-16T08:51:31;1.67;;;1.67;;
27303;SDS011;14791;52.392;13.092;2023-05-16T08:54:03;1.60;;;1.60;;
27303;SDS011;14791;52.392;13.092;2023-05-16T08:56:35;1.40;;;1.40;;
27303;SDS011;14791;52.392;13.092;2023-05-16T08:59:05;1.50;;;1.50;;
27303;SDS011;14791;52.392;13.092;2023-05-16T09:01:35;1.72;;;1.72;;
27303;SDS011;14791;52.392;13.092;2023-05-16T09:04:05;2.00;;;1.90;;
27303;SDS011;14791;52.392;13.092;2023-05-16T09:06:35;1.50;;;1.50;;
27303;SDS011;14791;52.392;13.092;2023-05-16T09:09:04;1.50;;;1.22;;
27303;SDS011;14791;52.392;13.092;2023-05-16T09:11:35;1.63;;;1.60;;
27303;SDS011;14791;52.392;13.092;2023-05-16T09:14:04;1.45;;;1.35;;
27303;SDS011;14791;52.392;13.092;2023-05-16T09:16:33;1.87;;;1.77;;
27303;SDS011;14791;52.392;13.092;2023-05-16T09:19:02;2.15;;;1.70;;
27303;SDS011;14791;52.392;13.092;2023-05-16T09:21:34;1.70;;;1.60;;
27303;SDS011;14791;52.392;13.092;2023-05-16T09:24:06;1.20;;;1.20;;
27303;SDS011;14791;52.392;13.092;2023-05-16T09:26:37;1.57;;;1.47;;
27303;SDS011;14791;52.392;13.092;2023-05-16T09:29:10;1.80;;;1.70;;
27303;SDS011;14791;52.392;13.092;2023-05-16T09:31:39;1.50;;;1.42;;
27303;SDS011;14791;52.392;13.092;2023-05-16T09:34:09;1.50;;;1.40;;
27303;SDS011;14791;52.392;13.092;2023-05-16T09:36:39;1.32;;;1.32;;
27303;SDS011;14791;52.392;13.092;2023-05-16T09:39:08;1.45;;;1.12;;
27303;SDS011;14791;52.392;13.092;2023-05-16T09:41:38;2.27;;;2.07;;
27303;SDS011;14791;52.392;13.092;2023-05-16T09:44:07;2.02;;;1.92;;
27303;SDS011;14791;52.392;13.092;2023-05-16T09:46:36;1.27;;;1.22;;
27303;SDS011;14791;52.392;13.092;2023-05-16T09:49:05;1.37;;;1.27;;
27303;SDS011;14791;52.392;13.092;2023-05-16T09:51:36;2.37;;;2.27;;
27303;SDS011;14791;52.392;13.092;2023-05-16T09:54:06;2.30;;;2.02;;
27303;SDS011;14791;52.392;13.092;2023-05-16T09:56:47;3.43;;;1.50;;
27303;SDS011;14791;52.392;13.092;2023-05-16T09:59:18;1.80;;;1.70;;
27303;SDS011;14791;52.392;13.092;2023-05-16T10:01:48;1.80;;;1.60;;
27303;SDS011;14791;52.392;13.092;2023-05-16T10:04:20;1.80;;;1.50;;
27303;SDS011;14791;52.392;13.092;2023-05-16T10:06:49;1.77;;;1.60;;
27303;SDS011;14791;52.392;13.092;2023-05-16T10:09:18;3.27;;;1.90;;
27303;SDS011;14791;52.392;13.092;2023-05-16T10:11:50;1.70;;;1.60;;
27303;SDS011;14791;52.392;13.092;2023-05-16T10:14:20;1.98;;;1.85;;
27303;SDS011;14791;52.392;13.092;2023-05-16T10:16:51;1.90;;;1.70;;
27303;SDS011;14791;52.392;13.092;2023-05-16T10:19:20;2.72;;;1.60;;
27303;SDS011;14791;52.392;13.092;2023-05-16T10:21:53;1.70;;;1.60;;
27303;SDS011;14791;52.392;13.092;2023-05-16T10:24:28;2.80;;;1.60;;
27303;SDS011;14791;52.392;13.092;2023-05-16T10:27:03;1.75;;;1.50;;
27303;SDS011;14791;52.392;13.092;2023-05-16T10:29:32;1.72;;;1.62;;
27303;SDS011;14791;52.392;13.092;2023-05-16T10:32:01;2.72;;;1.72;;
27303;SDS011;14791;52.392;13.092;2023-05-16T10:34:32;2.75;;;2.42;;
27303;SDS011;14791;52.392;13.092;2023-05-16T10:37:02;1.95;;;1.75;;
27303;SDS011;14791;52.392;13.092;2023-05-16T10:39:32;1.80;;;1.70;;
27303;SDS011;14791;52.392;13.092;2023-05-16T10:42:03;1.60;;;1.50;;
27303;SDS011;14791;52.392;13.092;2023-05-16T10:44:33;1.90;;;1.80;;
27303;SDS011;14791;52.392;13.092;2023-05-16T10:47:05;4.97;;;1.75;;
27303;SDS011;14791;52.392;13.092;2023-05-16T10:49:34;1.92;;;1.47;;
27303;SDS011;14791;52.392;13.092;2023-05-16T10:52:06;1.80;;;1.70;;
27303;SDS011;14791;52.392;13.092;2023-05-16T10:54:40;1.67;;;1.55;;
27303;SDS011;14791;52.392;13.092;2023-05-16T10:57:10;1.62;;;1.22;;
27303;SDS011;14791;52.392;13.092;2023-05-16T10:59:49;1.25;;;1.15;;
27303;SDS011;14791;52.392;13.092;2023-05-16T11:02:20;2.62;;;1.50;;
27303;SDS011;14791;52.392;13.092;2023-05-16T11:04:52;1.10;;;1.10;;
27303;SDS011;14791;52.392;13.092;2023-05-16T11:07:30;1.82;;;1.25;;
27303;SDS011;14791;52.392;13.092;2023-05-16T11:10:10;2.12;;;1.52;;
27303;SDS011;14791;52.392;13.092;2023-05-16T11:12:49;1.35;;;1.25;;
27303;SDS011;14791;52.392;13.092;2023-05-16T11:15:24;2.95;;;1.50;;
27303;SDS011;14791;52.392;13.092;2023-05-16T11:18:07;1.45;;;1.35;;
27303;SDS011;14791;52.392;13.092;2023-05-16T11:20:44;1.30;;;1.30;;
27303;SDS011;14791;52.392;13.092;2023-05-16T11:23:17;2.83;;;1.77;;
27303;SDS011;14791;52.392;13.092;2023-05-16T11:25:48;2.92;;;1.70;;
27303;SDS011;14791;52.392;13.092;2023-05-16T11:28:25;1.75;;;1.40;;
27303;SDS011;14791;52.392;13.092;2023-05-16T11:30:56;1.42;;;1.32;;
27303;SDS011;14791;52.392;13.092;2023-05-16T11:33:26;1.98;;;1.70;;
27303;SDS011;14791;52.392;13.092;2023-05-16T11:35:59;3.20;;;2.27;;
27303;SDS011;14791;52.392;13.092;2023-05-16T11:38:32;1.80;;;1.70;;
27303;SDS011;14791;52.392;13.092;2023-05-16T11:41:06;2.05;;;1.45;;
27303;SDS011;14791;52.392;13.092;2023-05-16T11:43:36;1.70;;;1.60;;
27303;SDS011;14791;52.392;13.092;2023-05-16T11:46:10;1.85;;;1.42;;
27303;SDS011;14791;52.392;13.092;2023-05-16T11:48:39;1.57;;;1.47;;
27303;SDS011;14791;52.392;13.092;2023-05-16T11:51:09;4.95;;;1.52;;
27303;SDS011;14791;52.392;13.092;2023-05-16T11:53:40;2.58;;;1.32;;
27303;SDS011;14791;52.392;13.092;2023-05-16T11:56:09;4.28;;;1.92;;
27303;SDS011;14791;52.392;13.092;2023-05-16T11:58:38;3.00;;;1.57;;
27303;SDS011;14791;52.392;13.092;2023-05-16T12:01:08;1.60;;;1.50;;
27303;SDS011;14791;52.392;13.092;2023-05-16T12:03:37;1.92;;;1.70;;
27303;SDS011;14791;52.392;13.092;2023-05-16T12:06:06;3.80;;;1.62;;
27303;SDS011;14791;52.392;13.092;2023-05-16T12:08:36;1.95;;;1.47;;
27303;SDS011;14791;52.392;13.092;2023-05-16T12:11:05;3.72;;;1.40;;
27303;SDS011;14791;52.392;13.092;2023-05-16T12:13:34;1.90;;;1.32;;
27303;SDS011;14791;52.392;13.092;2023-05-16T12:16:03;1.40;;;1.30;;
27303;SDS011;14791;52.392;13.092;2023-05-16T12:18:32;2.27;;;1.45;;
27303;SDS011;14791;52.392;13.092;2023-05-16T12:21:06;2.77;;;1.40;;
27303;SDS011;14791;52.392;13.092;2023-05-16T12:23:35;1.70;;;1.60;;
27303;SDS011;14791;52.392;13.092;2023-05-16T12:26:04;1.77;;;1.42;;
27303;SDS011;14791;52.392;13.092;2023-05-16T12:28:34;1.42;;;1.32;;
27303;SDS011;14791;52.392;13.092;2023-05-16T12:31:17;1.50;;;1.40;;
27303;SDS011;14791;52.392;13.092;2023-05-16T12:33:47;3.00;;;1.27;;
27303;SDS011;14791;52.392;13.092;2023-05-16T12:36:19;1.35;;;1.25;;
27303;SDS011;14791;52.392;13.092;2023-05-16T12:38:50;1.65;;;1.12;;
27303;SDS011;14791;52.392;13.092;2023-05-16T12:41:20;1.85;;;1.40;;
27303;SDS011;14791;52.392;13.092;2023-05-16T12:43:50;1.52;;;1.42;;
27303;SDS011;14791;52.392;13.092;2023-05-16T12:46:20;1.40;;;1.30;;
27303;SDS011;14791;52.392;13.092;2023-05-16T12:48:57;1.72;;;1.60;;
27303;SDS011;14791;52.392;13.092;2023-05-16T12:51:24;4.25;;;2.00;;
27303;SDS011;14791;52.392;13.092;2023-05-16T12:54:05;11.08;;;2.80;;
27303;SDS011;14791;52.392;13.092;2023-05-16T12:56:31;4.12;;;1.92;;
27303;SDS011;14791;52.392;13.092;2023-05-16T12:59:01;2.42;;;1.20;;
27303;SDS011;14791;52.392;13.092;2023-05-16T13:01:29;2.27;;;1.25;;
27303;SDS011;14791;52.392;13.092;2023-05-16T13:03:59;1.72;;;1.62;;
27303;SDS011;14791;52.392;13.092;2023-05-16T13:06:28;2.17;;;1.57;;
27303;SDS011;14791;52.392;13.092;2023-05-16T13:08:57;1.77;;;1.67;;
27303;SDS011;14791;52.392;13.092;2023-05-16T13:11:27;5.92;;;1.50;;
27303;SDS011;14791;52.392;13.092;2023-05-16T13:13:56;1.40;;;1.25;;
27303;SDS011;14791;52.392;13.092;2023-05-16T13:16:25;1.72;;;1.12;;
27303;SDS011;14791;52.392;13.092;2023-05-16T13:18:54;1.92;;;0.98;;
27303;SDS011;14791;52.392;13.092;2023-05-16T13:21:25;1.90;;;1.17;;
27303;SDS011;14791;52.392;13.092;2023-05-16T13:23:55;3.00;;;1.10;;
27303;SDS011;14791;52.392;13.092;2023-05-16T13:26:25;1.45;;;1.32;;
27303;SDS011;14791;52.392;13.092;2023-05-16T13:28:54;1.45;;;1.10;;
27303;SDS011;14791;52.392;13.092;2023-05-16T13:31:23;2.12;;;2.02;;
27303;SDS011;14791;52.392;13.092;2023-05-16T13:33:52;2.05;;;1.85;;
27303;SDS011;14791;52.392;13.092;2023-05-16T13:36:21;1.45;;;1.40;;
27303;SDS011;14791;52.392;13.092;2023-05-16T13:38:49;1.27;;;0.93;;
27303;SDS011;14791;52.392;13.092;2023-05-16T13:41:18;1.57;;;1.50;;
27303;SDS011;14791;52.392;13.092;2023-05-16T13:43:48;1.35;;;0.93;;
27303;SDS011;14791;52.392;13.092;2023-05-16T13:46:17;2.25;;;1.27;;
27303;SDS011;14791;52.392;13.092;2023-05-16T13:48:46;1.47;;;1.30;;
27303;SDS011;14791;52.392;13.092;2023-05-16T13:51:15;1.15;;;1.12;;
27303;SDS011;14791;52.392;13.092;2023-05-16T13:53:44;1.42;;;1.32;;
27303;SDS011;14791;52.392;13.092;2023-05-16T13:56:13;1.30;;;1.10;;
27303;SDS011;14791;52.392;13.092;2023-05-16T13:58:42;1.25;;;1.15;;
27303;SDS011;14791;52.392;13.092;2023-05-16T14:01:11;1.22;;;1.12;;
27303;SDS011;14791;52.392;13.092;2023-05-16T14:03:40;0.80;;;0.80;;
27303;SDS011;14791;52.392;13.092;2023-05-16T14:06:09;2.12;;;0.98;;
27303;SDS011;14791;52.392;13.092;2023-05-16T14:08:38;0.82;;;0.82;;
27303;SDS011;14791;52.392;13.092;2023-05-16T14:11:07;0.90;;;0.90;;
27303;SDS011;14791;52.392;13.092;2023-05-16T14:13:36;0.88;;;0.88;;
27303;SDS011;14791;52.392;13.092;2023-05-16T14:16:06;1.30;;;1.20;;
27303;SDS011;14791;52.392;13.092;2023-05-16T14:18:35;1.20;;;1.07;;
27303;SDS011;14791;52.392;13.092;2023-05-16T14:21:04;2.08;;;1.30;;
27303;SDS011;14791;52.392;13.092;2023-05-16T14:23:33;1.70;;;0.95;;
27303;SDS011;14791;52.392;13.092;2023-05-16T14:26:02;0.80;;;0.80;;
27303;SDS011;14791;52.392;13.092;2023-05-16T14:28:31;3.30;;;1.02;;
27303;SDS011;14791;52.392;13.092;2023-05-16T14:31:00;1.25;;;0.95;;
27303;SDS011;14791;52.392;13.092;2023-05-16T14:33:29;1.10;;;1.00;;
27303;SDS011;14791;52.392;13.092;2023-05-16T14:35:59;1.98;;;1.10;;
27303;SDS011;14791;52.392;13.092;2023-05-16T14:38:27;1.15;;;1.15;;
27303;SDS011;14791;52.392;13.092;2023-05-16T14:40:56;0.98;;;0.70;;
27303;SDS011;14791;52.392;13.092;2023-05-16T14:43:25;0.88;;;0.88;;
27303;SDS011;14791;52.392;13.092;2023-05-16T14:45:54;1.27;;;1.00;;
27303;SDS011;14791;52.392;13.092;2023-05-16T14:48:23;0.80;;;0.80;;
27303;SDS011;14791;52.392;13.092;2023-05-16T14:50:52;1.87;;;1.10;;
27303;SDS011;14791;52.392;13.092;2023-05-16T14:53:21;4.45;;;1.10;;
27303;SDS011;14791;52.392;13.092;2023-05-16T14:55:50;0.80;;;0.80;;